Time;durP1;ratioP1;P1;durP2;ratioP2;P2;SDS_P1;SDS_P2;PMS_P1;PMS_P2;Temp;Humidity;BMP_temperature;BMP_pressure;BME280_temperature;BME280_humidity;BME280_pressure;Samples;Min_cycle;Max_cycle;Signal;HPM_P1;HPM_P2
2022/08/30 00:01:02;;;;;;;3.05;0.80;;;;;;;9.31;100.00;102322.19;6136836;23;20013;-79
2022/08/30 00:03:31;;;;;;;1.25;0.60;;;;;;;9.28;100.00;102319.81;6187954;23;19997;-79
2022/08/30 00:05:56;;;;;;;1.30;0.80;;;;;;;9.18;100.00;102298.41;6188784;23;20005;-78
2022/08/30 00:08:21;;;;;;;2.13;0.80;;;;;;;9.27;100.00;102332.41;6187270;23;20538;-79
2022/08/30 00:10:49;;;;;;;1.58;0.60;;;;;;;9.25;100.00;102326.34;6189624;23;20314;-79
2022/08/30 00:13:17;;;;;;;2.03;0.68;;;;;;;9.24;100.00;102330.03;6137351;23;20005;-79
2022/08/30 00:15:42;;;;;;;2.63;0.55;;;;;;;9.16;100.00;102333.44;6162990;23;20025;-79
2022/08/30 00:18:08;;;;;;;1.85;0.73;;;;;;;9.09;100.00;102332.38;6137586;23;20701;-79
2022/08/30 00:20:35;;;;;;;2.85;0.70;;;;;;;8.96;100.00;102326.53;6162858;23;20023;-79
2022/08/30 00:23:01;;;;;;;2.08;0.93;;;;;;;8.96;100.00;102336.44;6172813;23;20081;-78
2022/08/30 00:25:27;;;;;;;1.08;0.50;;;;;;;8.91;100.00;102335.06;6187420;23;20009;-79
2022/08/30 00:27:52;;;;;;;0.75;0.60;;;;;;;8.90;100.00;102325.28;6162046;23;20020;-79
2022/08/30 00:30:18;;;;;;;1.42;0.73;;;;;;;8.91;100.00;102324.31;6186496;23;20319;-79
2022/08/30 00:32:44;;;;;;;1.02;0.63;;;;;;;8.81;100.00;102318.16;6186076;23;20009;-78
2022/08/30 00:35:13;;;;;;;0.77;0.60;;;;;;;8.83;100.00;102324.19;6187463;23;20009;-79
2022/08/30 00:37:38;;;;;;;1.90;0.80;;;;;;;8.79;100.00;102309.41;6187624;23;20009;-79
2022/08/30 00:40:05;;;;;;;1.88;0.80;;;;;;;8.96;100.00;102325.69;6186256;23;20007;-79
2022/08/30 00:42:31;;;;;;;2.63;0.95;;;;;;;8.87;100.00;102298.78;6188996;23;19993;-79
2022/08/30 00:44:58;;;;;;;0.88;0.68;;;;;;;9.00;100.00;102314.47;6187182;23;20009;-79
2022/08/30 00:47:23;;;;;;;2.83;0.68;;;;;;;9.12;100.00;102331.22;6186457;23;20307;-79
2022/08/30 00:49:53;;;;;;;1.48;0.80;;;;;;;9.11;100.00;102322.34;6190055;23;20024;-79
2022/08/30 00:52:21;;;;;;;3.92;0.95;;;;;;;9.19;100.00;102332.31;6188359;23;20009;-79
2022/08/30 00:54:47;;;;;;;2.25;0.80;;;;;;;9.13;100.00;102301.53;6203150;23;20001;-79
2022/08/30 00:57:14;;;;;;;3.13;0.80;;;;;;;9.33;100.00;102326.41;6208141;23;20009;-80
2022/08/30 00:59:43;;;;;;;1.10;0.70;;;;;;;9.33;100.00;102328.25;6166194;23;20009;-79
2022/08/30 01:02:09;;;;;;;1.50;0.77;;;;;;;9.37;100.00;102335.00;6186907;23;20007;-79
2022/08/30 01:04:39;;;;;;;1.67;0.70;;;;;;;9.08;100.00;102293.09;6162126;23;20088;-79
2022/08/30 01:07:04;;;;;;;1.67;0.80;;;;;;;9.29;100.00;102334.94;6186904;23;20005;-79
2022/08/30 01:09:30;;;;;;;1.08;0.70;;;;;;;9.31;100.00;102341.84;6188182;23;20100;-79
2022/08/30 01:11:57;;;;;;;1.42;0.90;;;;;;;9.29;100.00;102335.75;6188355;23;20086;-79
2022/08/30 01:14:23;;;;;;;2.30;0.65;;;;;;;9.23;100.00;102339.06;6162789;23;20013;-79
2022/08/30 01:16:49;;;;;;;1.42;0.80;;;;;;;9.28;100.00;102352.06;6186914;23;20012;-79
2022/08/30 01:19:34;;;;;;;1.05;0.80;;;;;;;9.24;100.00;102332.72;6187466;23;20012;-79
2022/08/30 01:22:16;;;;;;;2.22;0.77;;;;;;;9.31;100.00;102357.97;6187429;23;20009;-79
2022/08/30 01:24:46;;;;;;;1.20;0.90;;;;;;;8.99;100.00;102293.19;6162891;23;20414;-79
2022/08/30 01:27:14;;;;;;;1.30;0.70;;;;;;;9.34;100.00;102352.28;6162559;23;20008;-79
2022/08/30 01:29:43;;;;;;;1.63;1.02;;;;;;;9.37;100.00;102357.34;6161676;23;20012;-79
2022/08/30 01:32:17;;;;;;;2.88;0.85;;;;;;;9.42;100.00;102348.81;6137717;23;20404;-79
2022/08/30 01:34:43;;;;;;;2.47;0.90;;;;;;;9.39;100.00;102344.59;6160713;23;20012;-79
2022/08/30 01:37:08;;;;;;;1.15;0.73;;;;;;;9.43;100.00;102358.56;6161324;23;20090;-79
2022/08/30 01:39:33;;;;;;;2.65;0.80;;;;;;;9.48;100.00;102347.38;6161689;23;20009;-79
2022/08/30 01:42:00;;;;;;;2.35;0.93;;;;;;;9.55;100.00;102346.59;6187213;23;20015;-79
2022/08/30 01:44:25;;;;;;;5.10;1.00;;;;;;;9.62;100.00;102350.34;6137920;23;20084;-79
2022/08/30 01:46:50;;;;;;;1.85;0.90;;;;;;;9.49;100.00;102323.03;6164777;23;20040;-79
2022/08/30 01:49:17;;;;;;;2.30;0.90;;;;;;;9.73;100.00;102356.47;6145731;23;20013;-79
2022/08/30 01:51:43;;;;;;;1.23;0.75;;;;;;;9.75;100.00;102355.31;6138072;23;20009;-79
2022/08/30 01:54:09;;;;;;;3.00;1.00;;;;;;;9.89;100.00;102360.13;6161756;23;20024;-79
2022/08/30 01:56:34;;;;;;;1.13;0.70;;;;;;;9.98;100.00;102368.28;6161592;23;20400;-79
2022/08/30 01:59:00;;;;;;;1.77;0.93;;;;;;;9.95;100.00;102360.53;6135982;23;20064;-79
2022/08/30 02:01:27;;;;;;;2.95;0.75;;;;;;;9.88;100.00;102346.84;6136726;23;20071;-79
2022/08/30 02:03:55;;;;;;;2.05;0.80;;;;;;;9.96;100.00;102357.66;6186849;23;20001;-79
2022/08/30 02:06:21;;;;;;;2.17;1.10;;;;;;;9.98;100.00;102357.53;6187089;23;20005;-79
2022/08/30 02:08:48;;;;;;;0.98;0.88;;;;;;;10.01;100.00;102352.66;6162350;23;20270;-79
2022/08/30 02:11:14;;;;;;;2.28;0.90;;;;;;;10.01;100.00;102354.50;6160774;23;20004;-79
2022/08/30 02:13:41;;;;;;;2.08;1.15;;;;;;;9.99;100.00;102351.13;6186125;23;20443;-79
2022/08/30 02:16:09;;;;;;;3.28;0.90;;;;;;;10.02;100.00;102356.19;6187089;23;20001;-79
2022/08/30 02:18:35;;;;;;;1.88;0.80;;;;;;;9.85;100.00;102339.94;6188464;23;20036;-79
2022/08/30 02:21:01;;;;;;;1.80;0.70;;;;;;;10.00;100.00;102359.06;6160785;23;20005;-79
2022/08/30 02:23:27;;;;;;;1.65;0.82;;;;;;;9.95;100.00;102352.44;6179315;23;20083;-79
2022/08/30 02:25:53;;;;;;;3.45;0.98;;;;;;;9.80;100.00;102336.91;6189206;23;20016;-79
2022/08/30 02:28:19;;;;;;;1.63;0.75;;;;;;;9.53;100.00;102300.22;6186818;23;20044;-79
2022/08/30 02:30:46;;;;;;;2.05;0.77;;;;;;;9.86;100.00;102355.06;6186423;23;20008;-79
2022/08/30 02:33:11;;;;;;;2.45;0.90;;;;;;;9.81;100.00;102354.72;6160423;23;20308;-79
2022/08/30 02:35:36;;;;;;;1.42;0.70;;;;;;;9.74;100.00;102334.00;6187334;23;20011;-79
2022/08/30 02:38:03;;;;;;;1.92;0.82;;;;;;;9.82;100.00;102351.00;6187584;23;20323;-79
2022/08/30 02:40:28;;;;;;;2.85;1.08;;;;;;;9.79;100.00;102351.31;6187137;23;20047;-79
2022/08/30 02:42:54;;;;;;;2.40;0.70;;;;;;;9.64;100.00;102334.06;6187917;23;20001;-79
2022/08/30 02:45:19;;;;;;;1.60;0.80;;;;;;;9.69;100.00;102345.19;6188068;23;20013;-79
2022/08/30 02:47:45;;;;;;;1.27;0.80;;;;;;;9.68;100.00;102343.50;6189961;23;20195;-79
2022/08/30 02:50:10;;;;;;;1.42;0.75;;;;;;;9.56;100.00;102326.78;6188487;23;20004;-79
2022/08/30 02:52:36;;;;;;;1.10;0.80;;;;;;;9.65;100.00;102336.59;6162459;23;20013;-79
2022/08/30 02:55:04;;;;;;;3.65;0.73;;;;;;;9.62;100.00;102346.81;6162188;23;20424;-79
2022/08/30 02:57:29;;;;;;;1.25;0.80;;;;;;;9.47;100.00;102332.22;6188785;23;20040;-80
2022/08/30 02:59:54;;;;;;;1.10;0.95;;;;;;;9.54;100.00;102352.97;6163192;23;20013;-79
2022/08/30 03:02:21;;;;;;;1.85;0.80;;;;;;;9.52;100.00;102346.91;6188980;23;20012;-78
2022/08/30 03:04:46;;;;;;;12.48;1.00;;;;;;;9.47;100.00;102343.84;6189119;23;20016;-79
2022/08/30 03:07:12;;;;;;;1.98;0.90;;;;;;;9.47;100.00;102345.66;6189441;23;20005;-79
2022/08/30 03:09:38;;;;;;;2.50;1.10;;;;;;;9.45;100.00;102343.16;6163237;23;20013;-79
2022/08/30 03:12:05;;;;;;;1.33;0.73;;;;;;;9.49;100.00;102352.56;6198806;23;20004;-79
2022/08/30 03:14:32;;;;;;;1.65;0.80;;;;;;;9.50;100.00;102354.25;6187543;23;20371;-79
2022/08/30 03:16:57;;;;;;;1.30;0.82;;;;;;;9.54;100.00;102352.13;6187936;23;20024;-79
2022/08/30 03:19:24;;;;;;;2.40;0.88;;;;;;;9.55;100.00;102351.13;6162579;23;20631;-79
2022/08/30 03:21:50;;;;;;;3.38;0.85;;;;;;;9.54;100.00;102352.97;6186550;23;20075;-79
2022/08/30 03:24:15;;;;;;;2.67;0.90;;;;;;;9.54;100.00;102352.13;6163019;23;20363;-79
2022/08/30 03:26:40;;;;;;;1.05;0.68;;;;;;;9.54;100.00;102357.50;6188584;23;20097;-79
2022/08/30 03:29:06;;;;;;;1.25;0.80;;;;;;;9.50;100.00;102353.41;6162511;23;20009;-78
2022/08/30 03:31:31;;;;;;;1.00;0.75;;;;;;;9.50;100.00;102351.56;6163366;23;20069;-79
2022/08/30 03:33:56;;;;;;;2.03;0.70;;;;;;;9.41;100.00;102347.16;6162040;23;20059;-79
2022/08/30 03:36:22;;;;;;;3.33;0.80;;;;;;;9.41;100.00;102347.16;6139742;23;20063;-79
2022/08/30 03:38:47;;;;;;;3.15;0.90;;;;;;;9.39;100.00;102355.34;6187627;23;20009;-79
2022/08/30 03:41:13;;;;;;;2.08;1.00;;;;;;;9.41;100.00;102360.56;6186668;23;20450;-79
2022/08/30 03:43:38;;;;;;;1.40;0.90;;;;;;;9.35;100.00;102350.44;6138618;23;20020;-79
2022/08/30 03:46:04;;;;;;;1.90;0.82;;;;;;;9.45;100.00;102363.78;6161532;23;20016;-79
2022/08/30 03:48:29;;;;;;;2.50;0.82;;;;;;;9.40;100.00;102366.94;6189584;23;20037;-80
2022/08/30 03:50:55;;;;;;;2.42;0.80;;;;;;;9.30;100.00;102353.56;6137833;23;20017;-79
2022/08/30 03:53:20;;;;;;;0.90;0.75;;;;;;;9.34;100.00;102365.72;6162645;23;20036;-78
2022/08/30 03:55:46;;;;;;;1.48;0.80;;;;;;;9.30;100.00;102371.53;6162109;23;20005;-79
2022/08/30 03:58:11;;;;;;;1.55;0.70;;;;;;;9.20;100.00;102354.63;6189384;23;20005;-79
2022/08/30 04:00:37;;;;;;;2.25;0.70;;;;;;;9.27;100.00;102372.69;6136980;23;20404;-79
2022/08/30 04:03:02;;;;;;;1.48;0.80;;;;;;;9.06;100.00;102343.41;6136275;23;20001;-79
2022/08/30 04:05:28;;;;;;;1.88;0.93;;;;;;;9.08;100.00;102356.72;6188139;23;20005;-79
2022/08/30 04:07:53;;;;;;;3.38;0.95;;;;;;;9.26;100.00;102375.53;6137494;23;20353;-79
2022/08/30 04:10:21;;;;;;;2.20;0.80;;;;;;;9.24;100.00;102383.75;6162575;23;20404;-78
2022/08/30 04:12:48;;;;;;;2.03;0.80;;;;;;;9.08;100.00;102356.72;6162022;23;20067;-79
2022/08/30 04:15:15;;;;;;;3.53;0.93;;;;;;;9.28;100.00;102389.66;6162106;23;20016;-79
2022/08/30 04:17:41;;;;;;;1.08;0.80;;;;;;;9.23;100.00;102390.09;6162550;23;20376;-78
2022/08/30 04:20:07;;;;;;;2.55;0.88;;;;;;;9.17;100.00;102390.69;6161743;23;20039;-79
2022/08/30 04:22:32;;;;;;;2.67;0.90;;;;;;;8.81;100.00;102331.59;6168725;23;20017;-79
2022/08/30 04:24:58;;;;;;;2.15;0.80;;;;;;;9.07;100.00;102382.72;6187210;23;20204;-79
2022/08/30 04:27:23;;;;;;;1.27;0.70;;;;;;;9.25;100.00;102390.78;6186239;23;20019;-79
2022/08/30 04:29:49;;;;;;;1.67;0.75;;;;;;;9.94;100.00;102380.34;6162126;23;20020;-79
2022/08/30 04:32:15;;;;;;;1.27;0.80;;;;;;;10.39;100.00;102387.41;6192195;23;20013;-78
2022/08/30 04:34:41;;;;;;;1.80;1.00;;;;;;;10.15;100.00;102386.22;6196182;23;20069;-79
2022/08/30 04:37:06;;;;;;;0.95;0.70;;;;;;;9.71;100.00;102367.41;6190827;23;20016;-79
2022/08/30 04:39:32;;;;;;;1.58;0.80;;;;;;;9.56;100.00;102393.94;6187916;23;20087;-80
2022/08/30 04:41:57;;;;;;;1.60;0.75;;;;;;;9.47;100.00;102402.97;6164977;23;20023;-79
2022/08/30 04:44:26;;;;;;;3.25;1.00;;;;;;;9.29;100.00;102386.81;6163867;23;20496;-80
2022/08/30 04:46:51;;;;;;;3.05;0.90;;;;;;;9.30;100.00;102409.13;6189839;23;20084;-79
2022/08/30 04:49:16;;;;;;;1.75;0.70;;;;;;;9.28;100.00;102422.72;6192744;23;20005;-79
2022/08/30 04:51:42;;;;;;;2.78;1.00;;;;;;;9.24;100.00;102409.72;6193981;23;20009;-80
2022/08/30 04:54:07;;;;;;;0.93;0.73;;;;;;;8.78;100.00;102339.09;6201469;23;20044;-80
2022/08/30 04:56:33;;;;;;;2.38;1.00;;;;;;;9.28;100.00;102420.03;6144542;23;20005;-80
2022/08/30 04:58:59;;;;;;;1.70;0.80;;;;;;;9.55;100.00;102421.00;6167423;23;20082;-79
2022/08/30 05:01:28;;;;;;;1.98;1.00;;;;;;;10.90;100.00;102420.66;6192518;23;20037;-79
2022/08/30 05:03:55;;;;;;;2.35;1.10;;;;;;;12.28;100.00;102427.28;6195738;23;20011;-79
2022/08/30 05:06:22;;;;;;;2.88;0.93;;;;;;;13.21;96.74;102421.25;6196268;23;20001;-79
2022/08/30 05:08:47;;;;;;;1.98;0.85;;;;;;;13.82;91.95;102422.25;6201557;23;20077;-80
2022/08/30 05:11:14;;;;;;;8.85;1.50;;;;;;;14.59;88.41;102429.34;6182169;23;19993;-79
2022/08/30 05:13:40;;;;;;;2.25;0.95;;;;;;;14.95;85.96;102432.16;6207710;23;20019;-80
2022/08/30 05:16:07;;;;;;;3.08;0.93;;;;;;;15.34;83.29;102423.69;6208005;23;19997;-79
2022/08/30 05:18:33;;;;;;;2.60;1.20;;;;;;;15.36;82.37;102427.00;6208435;23;20214;-79
2022/08/30 05:21:14;;;;;;;2.03;1.20;;;;;;;15.76;81.34;102427.50;6205904;23;20081;-78
2022/08/30 05:23:41;;;;;;;3.13;1.20;;;;;;;16.10;78.44;102439.50;6207479;23;20069;-80
2022/08/30 05:26:09;;;;;;;2.08;1.20;;;;;;;16.20;77.00;102416.38;6207002;23;19989;-79
2022/08/30 05:28:35;;;;;;;2.30;1.10;;;;;;;16.59;75.56;102439.44;6211283;23;20019;-80
2022/08/30 05:31:01;;;;;;;4.80;1.10;;;;;;;15.37;82.17;102439.56;6208266;23;20009;-79
2022/08/30 05:33:26;;;;;;;1.98;1.20;;;;;;;15.93;80.07;102436.22;6181641;23;20033;-80
2022/08/30 05:35:51;;;;;;;2.53;1.17;;;;;;;16.17;77.60;102443.94;6174827;23;20009;-79
2022/08/30 05:38:17;;;;;;;2.40;1.20;;;;;;;15.24;81.69;102432.13;6141281;23;20421;-79
2022/08/30 05:40:42;;;;;;;2.83;1.20;;;;;;;14.00;88.78;102439.00;6140864;23;20023;-79
2022/08/30 05:43:10;;;;;;;2.97;1.10;;;;;;;13.21;94.46;102437.47;6164741;23;20016;-79
2022/08/30 05:45:36;;;;;;;2.90;1.15;;;;;;;12.87;98.17;102454.84;6164912;23;20016;-79
2022/08/30 05:48:02;;;;;;;4.47;1.30;;;;;;;12.43;100.00;102425.59;6191140;23;20396;-79
2022/08/30 05:50:27;;;;;;;3.63;1.38;;;;;;;12.59;100.00;102462.53;6144832;23;20087;-79
2022/08/30 05:52:53;;;;;;;2.40;0.98;;;;;;;12.67;100.00;102454.41;6176965;23;20041;-79
2022/08/30 05:55:18;;;;;;;2.65;1.13;;;;;;;12.77;100.00;102471.25;6169857;23;20067;-79
2022/08/30 05:57:45;;;;;;;2.00;1.10;;;;;;;12.78;100.00;102467.56;6142071;23;20088;-79
2022/08/30 06:00:15;;;;;;;1.63;1.10;;;;;;;12.49;100.00;102478.91;6144245;23;20005;-80
2022/08/30 06:02:41;;;;;;;7.28;1.42;;;;;;;12.34;100.00;102461.72;6179601;23;20016;-80
2022/08/30 06:05:07;;;;;;;2.17;1.00;;;;;;;12.40;100.00;102467.25;6168543;23;20357;-80
2022/08/30 06:07:33;;;;;;;3.15;1.02;;;;;;;12.51;100.00;102470.63;6193716;23;20001;-80
2022/08/30 06:09:59;;;;;;;2.05;1.02;;;;;;;12.45;100.00;102451.41;6140234;23;20009;-79
2022/08/30 06:12:24;;;;;;;3.03;1.00;;;;;;;12.55;100.00;102462.03;6168799;23;20005;-80
2022/08/30 06:14:50;;;;;;;1.77;0.93;;;;;;;12.83;100.00;102483.22;6166296;23;20084;-79
2022/08/30 06:17:15;;;;;;;1.83;0.90;;;;;;;12.80;100.00;102478.16;6196303;23;20001;-79
2022/08/30 06:19:41;;;;;;;2.97;1.00;;;;;;;12.81;100.00;102469.03;6149264;23;20005;-80
2022/08/30 06:22:06;;;;;;;1.67;0.95;;;;;;;12.93;100.00;102473.91;6195014;23;20104;-80
2022/08/30 06:24:31;;;;;;;2.65;1.00;;;;;;;13.08;100.00;102454.28;6164965;23;20020;-79
2022/08/30 06:26:57;;;;;;;3.80;1.10;;;;;;;13.31;100.00;102479.53;6162696;23;20075;-80
2022/08/30 06:29:22;;;;;;;2.42;1.00;;;;;;;13.54;100.00;102470.63;6139078;23;20008;-77
2022/08/30 06:31:49;;;;;;;2.95;0.90;;;;;;;13.73;100.00;102486.41;6143835;23;20009;-78
2022/08/30 06:34:15;;;;;;;2.28;0.93;;;;;;;13.69;100.00;102454.47;6177435;23;20005;-80
2022/08/30 06:36:41;;;;;;;3.45;0.90;;;;;;;13.91;100.00;102474.44;6204183;23;20087;-80
2022/08/30 06:39:07;;;;;;;2.13;1.17;;;;;;;13.98;100.00;102480.84;6194120;23;20308;-80
2022/08/30 06:41:35;;;;;;;2.33;0.90;;;;;;;14.10;100.00;102477.53;6169525;23;20020;-80
2022/08/30 06:44:02;;;;;;;1.30;0.90;;;;;;;14.10;100.00;102480.22;6198199;23;19997;-79
2022/08/30 06:46:32;;;;;;;1.80;0.82;;;;;;;14.23;100.00;102489.56;6191481;23;20011;-78
2022/08/30 06:48:58;;;;;;;1.33;0.93;;;;;;;14.34;100.00;102484.59;6162304;23;20009;-77
2022/08/30 06:51:36;;;;;;;1.15;0.70;;;;;;;14.61;100.00;102486.91;6188418;23;20013;-77
2022/08/30 06:54:04;;;;;;;2.83;0.90;;;;;;;14.66;100.00;102473.63;6196912;23;20048;-79
2022/08/30 06:56:29;;;;;;;4.45;1.00;;;;;;;14.90;100.00;102497.78;6173123;23;20021;-78
2022/08/30 06:58:55;;;;;;;1.75;0.85;;;;;;;14.98;100.00;102496.84;6191336;23;20031;-77
2022/08/30 07:01:24;;;;;;;1.65;0.90;;;;;;;14.92;100.00;102484.88;6191363;23;20005;-79
2022/08/30 07:03:51;;;;;;;2.63;0.80;;;;;;;14.86;100.00;102468.50;6190481;23;20303;-77
2022/08/30 07:06:18;;;;;;;1.73;0.80;;;;;;;15.20;100.00;102495.91;6187204;23;20033;-79
2022/08/30 07:08:43;;;;;;;1.13;0.80;;;;;;;15.15;100.00;102481.22;6191514;23;20366;-79
2022/08/30 07:11:09;;;;;;;1.20;0.60;;;;;;;15.30;100.00;102497.47;6190303;23;20455;-79
2022/08/30 07:13:35;;;;;;;2.50;0.70;;;;;;;15.43;100.00;102489.47;6164110;23;20092;-77
2022/08/30 07:16:09;;;;;;;1.08;0.70;;;;;;;15.48;100.00;102496.03;6160721;23;20001;-77
2022/08/30 07:18:50;;;;;;;1.63;0.63;;;;;;;15.48;100.00;102485.19;6162281;23;20016;-78
2022/08/30 07:21:19;;;;;;;5.07;0.70;;;;;;;15.43;100.00;102482.22;6163886;23;20013;-77
2022/08/30 07:23:50;;;;;;;3.72;0.80;;;;;;;15.60;100.00;102495.56;6185620;23;20048;-76
2022/08/30 07:26:19;;;;;;;3.95;0.73;;;;;;;15.62;100.00;102488.03;6160864;23;20348;-77
2022/08/30 07:28:45;;;;;;;1.40;0.60;;;;;;;15.63;100.00;102489.72;6185773;23;20001;-76
2022/08/30 07:31:13;;;;;;;0.93;0.63;;;;;;;15.65;100.00;102480.34;6185861;23;20000;-77
2022/08/30 07:33:39;;;;;;;1.38;0.70;;;;;;;15.68;100.00;102480.00;6185688;23;20422;-77
2022/08/30 07:36:05;;;;;;;1.48;0.70;;;;;;;15.83;100.00;102488.13;6159774;23;20016;-77
2022/08/30 07:38:30;;;;;;;0.98;0.60;;;;;;;15.86;100.00;102476.88;6159965;23;20024;-77
2022/08/30 07:41:00;;;;;;;1.42;0.75;;;;;;;15.90;100.00;102472.72;6186006;23;20013;-76
2022/08/30 07:43:26;;;;;;;1.77;0.70;;;;;;;16.11;100.00;102490.03;6186027;23;20001;-77
2022/08/30 07:45:52;;;;;;;1.00;0.60;;;;;;;16.28;98.81;102490.63;6135246;23;20489;-77
2022/08/30 07:48:17;;;;;;;1.10;0.55;;;;;;;16.38;98.13;102489.22;6135211;23;20008;-77
2022/08/30 07:50:44;;;;;;;0.98;0.70;;;;;;;16.24;97.51;102483.91;6134971;23;20428;-78
2022/08/30 07:53:11;;;;;;;1.00;0.60;;;;;;;16.48;97.54;102488.91;6186090;23;20044;-78
2022/08/30 07:55:38;;;;;;;2.50;0.52;;;;;;;16.47;95.77;102497.25;6185912;23;20005;-78
2022/08/30 07:58:03;;;;;;;1.50;0.55;;;;;;;16.34;93.90;102493.38;6160091;23;20005;-78
2022/08/30 08:00:29;;;;;;;0.50;0.43;;;;;;;16.30;93.97;102483.97;6161031;23;20430;-77
2022/08/30 08:02:54;;;;;;;2.83;0.77;;;;;;;16.38;93.30;102481.09;6160849;23;20013;-78
2022/08/30 08:05:20;;;;;;;0.82;0.40;;;;;;;16.43;92.46;102508.53;6159392;23;20037;-78
2022/08/30 08:07:45;;;;;;;3.38;0.60;;;;;;;16.43;91.35;102481.34;6135701;23;20023;-79
2022/08/30 08:10:12;;;;;;;0.60;0.50;;;;;;;16.68;90.36;102497.19;6186667;23;20296;-78
2022/08/30 08:12:38;;;;;;;1.05;0.47;;;;;;;16.83;88.87;102497.13;6185465;23;20020;-78
2022/08/30 08:15:04;;;;;;;1.55;0.35;;;;;;;16.76;88.52;102494.38;6189189;23;20016;-78
2022/08/30 08:17:29;;;;;;;0.88;0.50;;;;;;;16.79;87.10;102502.13;6186189;23;20017;-77
2022/08/30 08:19:54;;;;;;;1.33;0.40;;;;;;;16.84;85.38;102502.34;6185479;23;20033;-78
2022/08/30 08:22:20;;;;;;;1.55;0.40;;;;;;;16.92;84.46;102504.09;6137651;23;20029;-77
2022/08/30 08:24:45;;;;;;;2.25;0.40;;;;;;;16.98;83.74;102508.72;6183981;23;20607;-77
2022/08/30 08:27:11;;;;;;;0.85;0.40;;;;;;;17.12;83.47;102502.31;6183979;23;20012;-77
2022/08/30 08:29:36;;;;;;;0.60;0.50;;;;;;;17.17;84.30;102499.00;6184142;23;20011;-77
2022/08/30 08:32:01;;;;;;;1.20;0.50;;;;;;;17.30;83.80;102498.22;6184028;23;20107;-77
2022/08/30 08:34:27;;;;;;;1.02;0.30;;;;;;;17.27;84.10;102513.06;6183831;23;20020;-77
2022/08/30 08:36:52;;;;;;;0.40;0.30;;;;;;;17.23;83.25;102502.78;6185748;23;20105;-77
2022/08/30 08:39:18;;;;;;;0.57;0.40;;;;;;;17.30;80.29;102515.38;6186350;23;20020;-76
2022/08/30 08:42:03;;;;;;;0.63;0.30;;;;;;;17.32;78.83;102507.88;6159697;23;20032;-77
2022/08/30 08:44:39;;;;;;;0.95;0.30;;;;;;;17.21;78.20;102513.88;6184066;23;20018;-77
2022/08/30 08:47:10;;;;;;;1.25;0.40;;;;;;;17.29;76.95;102519.16;6185267;23;20475;-78
2022/08/30 08:49:38;;;;;;;2.20;0.30;;;;;;;16.94;75.71;102457.66;6186286;23;20028;-77
2022/08/30 08:54:56;;;;;;;0.40;0.30;;;;;;;17.36;74.76;102498.25;6185197;23;20024;-77
2022/08/30 08:57:22;;;;;;;0.38;0.30;;;;;;;17.31;73.10;102514.31;6186235;23;20052;-77
2022/08/30 08:59:47;;;;;;;1.33;0.32;;;;;;;17.47;73.29;102515.03;6186251;23;20332;-77
2022/08/30 09:02:32;;;;;;;1.35;0.30;;;;;;;17.51;70.87;102500.81;6184957;23;20025;-78
2022/08/30 09:05:00;;;;;;;0.50;0.40;;;;;;;17.70;71.97;102512.81;6186146;23;20043;-77
2022/08/30 09:07:31;;;;;;;0.70;0.40;;;;;;;17.52;72.54;102498.94;6186395;23;20084;-77
2022/08/30 09:09:59;;;;;;;0.60;0.30;;;;;;;17.67;73.20;102507.78;6186057;23;20371;-77
2022/08/30 09:12:26;;;;;;;0.93;0.40;;;;;;;17.86;73.22;102508.91;6186011;23;20080;-78
2022/08/30 09:15:01;;;;;;;0.60;0.40;;;;;;;17.97;71.20;102502.84;6185057;23;20092;-77
2022/08/30 09:17:27;;;;;;;0.68;0.30;;;;;;;17.87;71.41;102493.41;6187014;23;20396;-78
2022/08/30 09:19:52;;;;;;;1.40;0.65;;;;;;;17.99;70.88;102508.09;6161356;23;20074;-78
2022/08/30 09:22:41;;;;;;;3.05;0.40;;;;;;;18.03;68.64;102503.91;6186296;23;20289;-77
2022/08/30 09:25:20;;;;;;;0.75;0.50;;;;;;;18.00;69.96;102498.88;6162059;23;20033;-77
2022/08/30 09:27:48;;;;;;;2.05;0.40;;;;;;;18.02;69.40;102494.91;6160263;23;20032;-77
2022/08/30 09:30:18;;;;;;;0.90;0.40;;;;;;;18.20;68.61;102497.00;6161109;23;19985;-78
2022/08/30 09:33:04;;;;;;;0.60;0.43;;;;;;;18.29;68.25;102492.19;6160060;23;20020;-78
2022/08/30 09:35:36;;;;;;;1.20;0.40;;;;;;;18.36;68.06;102481.31;6151249;23;20023;-77
2022/08/30 09:38:11;;;;;;;0.80;0.30;;;;;;;18.44;67.56;102484.66;6185119;23;20023;-77
2022/08/30 09:40:47;;;;;;;0.52;0.40;;;;;;;18.48;67.46;102485.06;6183901;23;20308;-77
2022/08/30 09:43:15;;;;;;;1.15;0.47;;;;;;;18.57;67.29;102489.25;6185633;23;20001;-77
2022/08/30 09:45:47;;;;;;;1.70;0.43;;;;;;;18.46;67.54;102474.38;6187863;23;20100;-80
2022/08/30 09:48:42;;;;;;;0.90;0.40;;;;;;;18.73;66.91;102490.72;6187131;23;20066;-78
2022/08/30 09:51:14;;;;;;;0.75;0.40;;;;;;;18.67;66.98;102481.47;6163566;23;20012;-79
2022/08/30 09:53:39;;;;;;;0.70;0.40;;;;;;;18.64;67.19;102487.38;6170755;23;20499;-78
2022/08/30 09:56:39;;;;;;;0.50;0.38;;;;;;;18.98;67.46;102488.16;6192872;23;20008;-78
2022/08/30 09:59:28;;;;;;;0.40;0.32;;;;;;;19.02;65.68;102486.66;6135806;23;20013;-78
2022/08/30 10:02:05;;;;;;;0.60;0.30;;;;;;;18.98;66.29;102482.72;6158032;23;20005;-78
2022/08/30 10:04:46;;;;;;;0.95;0.50;;;;;;;18.89;65.07;102473.06;6157601;23;20023;-78
2022/08/30 10:07:31;;;;;;;0.68;0.40;;;;;;;18.63;65.41;102461.13;6158112;23;20013;-78
2022/08/30 10:09:56;;;;;;;;;;;;;;;18.98;66.58;102486.25;6159495;23;19997;-80
2022/08/30 10:12:56;;;;;;;2.07;0.30;;;;;;;18.93;65.46;102482.50;6163754;23;19919;-78
2022/08/30 10:15:37;;;;;;;1.45;0.45;;;;;;;18.81;63.11;102490.50;6182024;23;20269;-79
2022/08/30 10:18:18;;;;;;;0.40;0.28;;;;;;;18.48;60.00;102485.06;6193934;23;20004;-79
2022/08/30 10:20:56;;;;;;;0.32;0.20;;;;;;;18.25;59.35;102464.53;6190209;23;20419;-78
2022/08/30 10:23:29;;;;;;;0.30;0.30;;;;;;;18.09;60.96;102448.59;6179361;23;20029;-79
2022/08/30 10:26:17;;;;;;;0.20;0.20;;;;;;;18.66;60.12;102485.25;6183483;23;20013;-78
2022/08/30 10:28:49;;;;;;;0.40;0.20;;;;;;;18.75;58.85;102485.91;6168350;23;20035;-78
2022/08/30 10:31:26;;;;;;;0.95;0.38;;;;;;;18.38;57.31;102468.31;6188525;23;20355;-78
2022/08/30 10:33:57;;;;;;;0.88;0.40;;;;;;;18.68;57.58;102471.41;6184694;23;20048;-78
2022/08/30 10:36:31;;;;;;;2.00;0.40;;;;;;;18.87;56.18;102470.53;6185863;23;20347;-79
2022/08/30 10:38:58;;;;;;;0.63;0.30;;;;;;;19.02;56.67;102492.13;6188838;23;20469;-79
2022/08/30 10:41:36;;;;;;;0.43;0.20;;;;;;;18.71;55.20;102462.81;6189809;23;20009;-79
2022/08/30 10:44:22;;;;;;;0.30;0.30;;;;;;;18.69;56.10;102476.66;6186835;23;20055;-79
2022/08/30 10:47:00;;;;;;;0.70;0.20;;;;;;;18.64;55.66;102483.78;6187711;23;19989;-79
2022/08/30 10:49:31;;;;;;;0.30;0.30;;;;;;;18.96;56.41;102482.06;6194683;23;20097;-79
2022/08/30 10:52:39;;;;;;;0.57;0.30;;;;;;;19.34;56.07;102478.59;6200050;23;20079;-80
2022/08/30 10:55:10;;;;;;;0.22;0.22;;;;;;;19.31;55.48;102493.50;6206495;23;20016;-81
2022/08/30 10:57:35;;;;;;;0.55;0.35;;;;;;;19.32;55.67;102434.28;6204995;23;20007;-81
2022/08/30 11:00:09;;;;;;;1.40;0.30;;;;;;;19.80;54.29;102485.69;6169266;23;20017;-80
2022/08/30 11:02:54;;;;;;;0.85;0.30;;;;;;;19.86;54.66;102485.66;6201906;23;19997;-80
2022/08/30 11:06:04;;;;;;;0.30;0.30;;;;;;;19.64;54.49;102492.53;6199439;23;20028;-80
2022/08/30 11:09:08;;;;;;;0.77;0.28;;;;;;;19.63;53.66;102466.25;6146975;23;20004;-80
2022/08/30 11:12:10;;;;;;;1.42;0.30;;;;;;;19.36;52.62;102476.47;6199620;23;20008;-80
2022/08/30 11:14:42;;;;;;;1.10;0.38;;;;;;;19.45;52.88;102477.91;6192064;23;20009;-79
2022/08/30 11:17:23;;;;;;;0.43;0.30;;;;;;;19.29;52.37;102478.38;6193482;23;20056;-79
2022/08/30 11:19:50;;;;;;;0.57;0.47;;;;;;;19.19;53.39;102478.84;6189847;23;20022;-79
2022/08/30 11:22:23;;;;;;;0.45;0.20;;;;;;;19.39;53.12;102479.59;6189046;23;20028;-78
2022/08/30 11:25:02;;;;;;;0.30;0.20;;;;;;;19.41;52.64;102469.31;6189127;23;20091;-79
2022/08/30 11:27:47;;;;;;;0.32;0.20;;;;;;;19.46;51.82;102468.66;6164677;23;20001;-79
2022/08/30 11:30:25;;;;;;;0.40;0.28;;;;;;;19.72;52.62;102473.16;6193598;23;20024;-80
2022/08/30 11:33:04;;;;;;;1.85;0.40;;;;;;;19.58;52.01;102471.53;6168194;23;20399;-79
2022/08/30 11:35:48;;;;;;;0.60;0.30;;;;;;;19.35;51.08;102431.13;6198174;23;20412;-81